ADDS METAR Data INFO
IDs: Format: Raw Decoded Include TAF

Data at: 0107 UTC 21 Oct 2017

KMHR 210045Z 00000KT 10SM BKN250 16/06 A3007
KMHR 202345Z 00000KT 10SM SCT044 BKN250 17/06 A3008
KMHR 202245Z 22003KT 10SM SCT044 BKN250 17/06 A3007
KMHR 202145Z 21010KT 10SM SCT044 BKN250 17/07 A3006
KMHR 202055Z 20008KT 10SM BKN040 17/07 A3007
KMHR 201945Z 16007KT 10SM BKN032 16/09 A3007
KMHR 201845Z 25005KT 10SM BKN100 14/10 A3009
KMHR 201745Z 20005KT 10SM BKN100 13/10 A3009
KMHR 201645Z 19006KT 10SM SCT120 12/10 A3007
KMHR 201545Z 17004KT 10SM SCT150 11/10 A3005
KMHR 201445Z 16006KT 10SM FEW150 09/09 A3004
KMHR 201350Z 14006KT 10SM FEW040 SCT090 09/08 A3000
KMHR 201255Z 09005KT 10SM FEW040 SCT090 09/09 A3000
KMHR 201150Z 15006KT 10SM FEW020 SCT090 10/09 A2997
KMHR 201050Z 14004KT 10SM FEW011 BKN090 11/10 A2994
KMHR 200630Z 15014KT 10SM FEW026 OVC070 16/12 A2982
KMHR 200545Z 14012KT 10SM BKN029 BKN065 OVC075 16/12 A2984
KMHR 200445Z 14008KT 10SM BKN022 BKN027 OVC039 16/12 A2986
KMHR 200345Z 18005KT 10SM FEW018 OVC070 16/12 A2987
KMHR 200245Z 21010KT 10SM SCT060 OVC070 16/12 A2987
KMHR 200150Z 21013KT 10SM BKN065 17/12 A2987
KMHR 200045Z 22012G19KT 10SM BKN070 BKN080 18/11 A2986
KMHR 192345Z 22016KT 10SM BKN070 19/11 A2987
KMHR 192245Z 22014KT 10SM BKN040 BKN070 20/11 A2988
KMHR 192050Z 20004KT 10SM FEW055 21/11 A2990
KMHR 191945Z 20011KT 10SM SCT080 21/10 A2994
KMHR 191845Z 20011G16KT 10SM OVC080 19/11 A2995
KMHR 191745Z 19011G16KT 10SM OVC080 18/11 A2995
KMHR 191655Z 14008KT 10SM OVC060 15/11 A2996
KMHR 191545Z 12009KT 10SM FEW060 13/10 A2995
KMHR 191445Z 11006KT 10SM FEW080 10/09 A2994
KMHR 191345Z 10007KT 10SM FEW080 09/08 A2995